sensor_id;sensor_type;location;lat;lon;timestamp;temperature;humidity
11491;DHT22;5802;52.832;4.758;2023-09-19T00:02:18;24.10;61.10
11491;DHT22;5802;52.832;4.758;2023-09-19T00:04:44;24.10;61.10
11491;DHT22;5802;52.832;4.758;2023-09-19T00:07:11;24.10;61.10
11491;DHT22;5802;52.832;4.758;2023-09-19T00:09:39;24.10;61.10
11491;DHT22;5802;52.832;4.758;2023-09-19T00:12:07;24.10;61.00
11491;DHT22;5802;52.832;4.758;2023-09-19T00:14:34;24.00;61.10
11491;DHT22;5802;52.832;4.758;2023-09-19T00:17:03;24.10;61.00
11491;DHT22;5802;52.832;4.758;2023-09-19T00:19:33;24.10;60.90
11491;DHT22;5802;52.832;4.758;2023-09-19T00:22:00;24.00;60.90
11491;DHT22;5802;52.832;4.758;2023-09-19T00:24:27;24.00;60.90
11491;DHT22;5802;52.832;4.758;2023-09-19T00:26:54;24.00;60.90
11491;DHT22;5802;52.832;4.758;2023-09-19T00:29:21;24.00;60.90
11491;DHT22;5802;52.832;4.758;2023-09-19T00:31:49;24.00;60.90
11491;DHT22;5802;52.832;4.758;2023-09-19T00:34:17;24.00;60.80
11491;DHT22;5802;52.832;4.758;2023-09-19T00:36:43;24.00;60.80
11491;DHT22;5802;52.832;4.758;2023-09-19T00:39:10;24.00;60.80
11491;DHT22;5802;52.832;4.758;2023-09-19T00:41:37;24.00;60.70
11491;DHT22;5802;52.832;4.758;2023-09-19T00:44:04;24.00;60.70
11491;DHT22;5802;52.832;4.758;2023-09-19T00:46:32;24.00;60.70
11491;DHT22;5802;52.832;4.758;2023-09-19T00:48:58;24.00;60.70
11491;DHT22;5802;52.832;4.758;2023-09-19T00:51:27;24.00;60.70
11491;DHT22;5802;52.832;4.758;2023-09-19T00:53:54;24.00;60.70
11491;DHT22;5802;52.832;4.758;2023-09-19T00:56:21;24.00;60.70
11491;DHT22;5802;52.832;4.758;2023-09-19T00:58:48;24.00;60.60
11491;DHT22;5802;52.832;4.758;2023-09-19T01:01:15;24.00;60.60
11491;DHT22;5802;52.832;4.758;2023-09-19T01:03:42;24.00;60.60
11491;DHT22;5802;52.832;4.758;2023-09-19T01:06:10;24.00;60.50
11491;DHT22;5802;52.832;4.758;2023-09-19T01:08:39;24.00;61.10
11491;DHT22;5802;52.832;4.758;2023-09-19T01:11:11;24.00;60.40
11491;DHT22;5802;52.832;4.758;2023-09-19T01:13:48;24.00;60.20
11491;DHT22;5802;52.832;4.758;2023-09-19T01:16:23;23.90;60.10
11491;DHT22;5802;52.832;4.758;2023-09-19T01:19:04;23.90;60.10
11491;DHT22;5802;52.832;4.758;2023-09-19T01:21:42;23.90;60.10
11491;DHT22;5802;52.832;4.758;2023-09-19T01:24:36;23.90;60.10
11491;DHT22;5802;52.832;4.758;2023-09-19T01:27:25;23.90;60.00
11491;DHT22;5802;52.832;4.758;2023-09-19T01:30:09;23.90;60.10
11491;DHT22;5802;52.832;4.758;2023-09-19T01:32:37;23.90;60.00
11491;DHT22;5802;52.832;4.758;2023-09-19T01:35:07;23.90;60.00
11491;DHT22;5802;52.832;4.758;2023-09-19T01:37:38;23.80;59.90
11491;DHT22;5802;52.832;4.758;2023-09-19T01:40:08;23.80;60.00
11491;DHT22;5802;52.832;4.758;2023-09-19T01:42:45;23.80;59.80
11491;DHT22;5802;52.832;4.758;2023-09-19T01:45:21;23.80;59.80
11491;DHT22;5802;52.832;4.758;2023-09-19T01:47:52;23.80;59.80
11491;DHT22;5802;52.832;4.758;2023-09-19T01:50:28;23.80;59.80
11491;DHT22;5802;52.832;4.758;2023-09-19T01:52:59;23.80;59.70
11491;DHT22;5802;52.832;4.758;2023-09-19T01:55:30;23.80;59.70
11491;DHT22;5802;52.832;4.758;2023-09-19T01:58:06;23.80;59.70
11491;DHT22;5802;52.832;4.758;2023-09-19T02:00:37;23.80;59.60
11491;DHT22;5802;52.832;4.758;2023-09-19T02:03:08;23.80;59.60
11491;DHT22;5802;52.832;4.758;2023-09-19T02:05:35;23.80;59.60
11491;DHT22;5802;52.832;4.758;2023-09-19T02:08:03;23.80;59.50
11491;DHT22;5802;52.832;4.758;2023-09-19T02:10:29;23.80;59.50
11491;DHT22;5802;52.832;4.758;2023-09-19T02:12:56;23.80;59.40
11491;DHT22;5802;52.832;4.758;2023-09-19T02:15:24;23.80;59.50
11491;DHT22;5802;52.832;4.758;2023-09-19T02:17:52;23.80;59.40
11491;DHT22;5802;52.832;4.758;2023-09-19T02:20:19;23.80;59.40
11491;DHT22;5802;52.832;4.758;2023-09-19T02:22:46;23.80;59.40
11491;DHT22;5802;52.832;4.758;2023-09-19T02:25:15;23.80;59.40
11491;DHT22;5802;52.832;4.758;2023-09-19T02:27:42;23.80;59.30
11491;DHT22;5802;52.832;4.758;2023-09-19T02:30:09;23.80;59.30
11491;DHT22;5802;52.832;4.758;2023-09-19T02:32:36;23.80;59.30
11491;DHT22;5802;52.832;4.758;2023-09-19T02:35:07;23.80;59.30
11491;DHT22;5802;52.832;4.758;2023-09-19T02:37:36;23.80;59.20
11491;DHT22;5802;52.832;4.758;2023-09-19T02:40:03;23.80;59.20
11491;DHT22;5802;52.832;4.758;2023-09-19T02:42:44;23.80;59.20
11491;DHT22;5802;52.832;4.758;2023-09-19T02:45:15;23.80;59.10
11491;DHT22;5802;52.832;4.758;2023-09-19T02:47:43;23.80;59.20
11491;DHT22;5802;52.832;4.758;2023-09-19T02:50:11;23.80;59.00
11491;DHT22;5802;52.832;4.758;2023-09-19T02:52:38;23.80;59.10
11491;DHT22;5802;52.832;4.758;2023-09-19T02:55:09;23.80;59.50
11491;DHT22;5802;52.832;4.758;2023-09-19T02:57:35;23.80;59.00
11491;DHT22;5802;52.832;4.758;2023-09-19T03:00:07;23.80;59.00
11491;DHT22;5802;52.832;4.758;2023-09-19T03:02:35;23.80;59.10
11491;DHT22;5802;52.832;4.758;2023-09-19T03:05:04;23.80;59.10
11491;DHT22;5802;52.832;4.758;2023-09-19T03:07:32;23.80;59.00
11491;DHT22;5802;52.832;4.758;2023-09-19T03:09:59;23.80;59.00
11491;DHT22;5802;52.832;4.758;2023-09-19T03:12:25;23.80;58.90
11491;DHT22;5802;52.832;4.758;2023-09-19T03:14:52;23.80;58.90
11491;DHT22;5802;52.832;4.758;2023-09-19T03:17:19;23.80;58.80
11491;DHT22;5802;52.832;4.758;2023-09-19T03:19:46;23.80;58.80
11491;DHT22;5802;52.832;4.758;2023-09-19T03:22:13;23.80;58.80
11491;DHT22;5802;52.832;4.758;2023-09-19T03:24:52;23.80;58.90
11491;DHT22;5802;52.832;4.758;2023-09-19T03:27:20;23.80;58.70
11491;DHT22;5802;52.832;4.758;2023-09-19T03:29:47;23.80;58.80
11491;DHT22;5802;52.832;4.758;2023-09-19T03:32:14;23.80;58.80
11491;DHT22;5802;52.832;4.758;2023-09-19T03:34:41;23.80;58.70
11491;DHT22;5802;52.832;4.758;2023-09-19T03:37:08;23.80;58.70
11491;DHT22;5802;52.832;4.758;2023-09-19T03:39:35;23.80;58.70
11491;DHT22;5802;52.832;4.758;2023-09-19T03:42:04;23.80;58.60
11491;DHT22;5802;52.832;4.758;2023-09-19T03:44:32;23.70;58.70
11491;DHT22;5802;52.832;4.758;2023-09-19T03:46:59;23.80;58.80
11491;DHT22;5802;52.832;4.758;2023-09-19T03:49:25;23.70;58.60
11491;DHT22;5802;52.832;4.758;2023-09-19T03:51:52;23.70;58.70
11491;DHT22;5802;52.832;4.758;2023-09-19T03:54:19;23.70;58.60
11491;DHT22;5802;52.832;4.758;2023-09-19T03:56:45;23.70;58.50
11491;DHT22;5802;52.832;4.758;2023-09-19T03:59:13;23.70;58.50
11491;DHT22;5802;52.832;4.758;2023-09-19T04:01:40;23.70;58.40
11491;DHT22;5802;52.832;4.758;2023-09-19T04:04:08;23.70;58.40
11491;DHT22;5802;52.832;4.758;2023-09-19T04:06:35;23.70;58.40
11491;DHT22;5802;52.832;4.758;2023-09-19T04:09:02;23.70;58.20
11491;DHT22;5802;52.832;4.758;2023-09-19T04:11:29;23.70;58.20
11491;DHT22;5802;52.832;4.758;2023-09-19T04:13:56;23.70;58.20
11491;DHT22;5802;52.832;4.758;2023-09-19T04:16:24;23.70;58.30
11491;DHT22;5802;52.832;4.758;2023-09-19T04:18:51;23.70;58.10
11491;DHT22;5802;52.832;4.758;2023-09-19T04:21:17;23.70;58.20
11491;DHT22;5802;52.832;4.758;2023-09-19T04:23:44;23.70;58.10
11491;DHT22;5802;52.832;4.758;2023-09-19T04:26:11;23.70;57.90
11491;DHT22;5802;52.832;4.758;2023-09-19T04:28:38;23.70;58.00
11491;DHT22;5802;52.832;4.758;2023-09-19T04:31:06;23.70;58.10
11491;DHT22;5802;52.832;4.758;2023-09-19T04:33:35;23.70;58.10
11491;DHT22;5802;52.832;4.758;2023-09-19T04:36:02;23.70;58.10
11491;DHT22;5802;52.832;4.758;2023-09-19T04:38:30;23.70;58.00
11491;DHT22;5802;52.832;4.758;2023-09-19T04:40:57;23.70;58.10
11491;DHT22;5802;52.832;4.758;2023-09-19T04:43:25;23.70;57.90
11491;DHT22;5802;52.832;4.758;2023-09-19T04:45:51;23.70;58.00
11491;DHT22;5802;52.832;4.758;2023-09-19T04:48:21;23.70;57.90
11491;DHT22;5802;52.832;4.758;2023-09-19T04:50:50;23.70;57.90
11491;DHT22;5802;52.832;4.758;2023-09-19T04:53:18;23.70;57.80
11491;DHT22;5802;52.832;4.758;2023-09-19T04:55:50;23.70;57.90
11491;DHT22;5802;52.832;4.758;2023-09-19T04:58:17;23.70;57.90
11491;DHT22;5802;52.832;4.758;2023-09-19T05:00:44;23.70;57.90
11491;DHT22;5802;52.832;4.758;2023-09-19T05:03:11;23.70;57.70
11491;DHT22;5802;52.832;4.758;2023-09-19T05:05:38;23.70;57.60
11491;DHT22;5802;52.832;4.758;2023-09-19T05:08:07;23.70;57.70
11491;DHT22;5802;52.832;4.758;2023-09-19T05:10:35;23.70;57.70
11491;DHT22;5802;52.832;4.758;2023-09-19T05:13:03;23.70;57.40
11491;DHT22;5802;52.832;4.758;2023-09-19T05:15:30;23.70;57.70
11491;DHT22;5802;52.832;4.758;2023-09-19T05:17:56;23.70;57.70
11491;DHT22;5802;52.832;4.758;2023-09-19T05:20:23;23.70;57.70
11491;DHT22;5802;52.832;4.758;2023-09-19T05:22:58;23.70;57.60
11491;DHT22;5802;52.832;4.758;2023-09-19T05:25:28;23.70;57.60
11491;DHT22;5802;52.832;4.758;2023-09-19T05:27:57;23.60;57.50
11491;DHT22;5802;52.832;4.758;2023-09-19T05:30:24;23.60;57.40
11491;DHT22;5802;52.832;4.758;2023-09-19T05:32:52;23.60;57.40
11491;DHT22;5802;52.832;4.758;2023-09-19T05:35:19;23.60;57.30
11491;DHT22;5802;52.832;4.758;2023-09-19T05:37:47;23.60;57.30
11491;DHT22;5802;52.832;4.758;2023-09-19T05:40:16;23.60;57.30
11491;DHT22;5802;52.832;4.758;2023-09-19T05:42:45;23.60;57.30
11491;DHT22;5802;52.832;4.758;2023-09-19T05:45:12;23.60;57.20
11491;DHT22;5802;52.832;4.758;2023-09-19T05:47:39;23.60;57.10
11491;DHT22;5802;52.832;4.758;2023-09-19T05:50:11;23.60;57.10
11491;DHT22;5802;52.832;4.758;2023-09-19T05:52:38;23.60;57.00
11491;DHT22;5802;52.832;4.758;2023-09-19T05:55:06;23.60;57.00
11491;DHT22;5802;52.832;4.758;2023-09-19T05:57:33;23.60;57.20
11491;DHT22;5802;52.832;4.758;2023-09-19T06:00:02;23.60;57.00
11491;DHT22;5802;52.832;4.758;2023-09-19T06:02:34;23.60;56.80
11491;DHT22;5802;52.832;4.758;2023-09-19T06:05:01;23.60;56.70
11491;DHT22;5802;52.832;4.758;2023-09-19T06:07:28;23.60;56.90
11491;DHT22;5802;52.832;4.758;2023-09-19T06:10:02;23.60;57.10
11491;DHT22;5802;52.832;4.758;2023-09-19T06:12:31;23.60;56.50
11491;DHT22;5802;52.832;4.758;2023-09-19T06:14:58;23.60;56.70
11491;DHT22;5802;52.832;4.758;2023-09-19T06:17:26;23.60;56.80
11491;DHT22;5802;52.832;4.758;2023-09-19T06:19:54;23.60;56.70
11491;DHT22;5802;52.832;4.758;2023-09-19T06:22:21;23.70;56.60
11491;DHT22;5802;52.832;4.758;2023-09-19T06:24:49;23.70;56.40
11491;DHT22;5802;52.832;4.758;2023-09-19T06:27:16;23.70;56.10
11491;DHT22;5802;52.832;4.758;2023-09-19T06:29:42;23.70;56.10
11491;DHT22;5802;52.832;4.758;2023-09-19T06:32:09;23.70;56.40
11491;DHT22;5802;52.832;4.758;2023-09-19T06:34:37;23.70;56.10
11491;DHT22;5802;52.832;4.758;2023-09-19T06:37:04;23.70;56.00
11491;DHT22;5802;52.832;4.758;2023-09-19T06:39:31;23.70;56.10
11491;DHT22;5802;52.832;4.758;2023-09-19T06:41:58;23.70;56.10
11491;DHT22;5802;52.832;4.758;2023-09-19T06:44:27;23.80;55.80
11491;DHT22;5802;52.832;4.758;2023-09-19T06:46:55;23.80;55.60
11491;DHT22;5802;52.832;4.758;2023-09-19T06:49:21;23.80;55.60
11491;DHT22;5802;52.832;4.758;2023-09-19T06:51:49;23.80;55.80
11491;DHT22;5802;52.832;4.758;2023-09-19T06:54:16;23.80;55.70
11491;DHT22;5802;52.832;4.758;2023-09-19T06:56:43;23.80;55.70
11491;DHT22;5802;52.832;4.758;2023-09-19T06:59:10;23.80;55.80
11491;DHT22;5802;52.832;4.758;2023-09-19T07:01:40;23.80;55.50
11491;DHT22;5802;52.832;4.758;2023-09-19T07:04:06;23.80;56.20
11491;DHT22;5802;52.832;4.758;2023-09-19T07:06:33;23.80;55.10
11491;DHT22;5802;52.832;4.758;2023-09-19T07:09:01;23.80;55.20
11491;DHT22;5802;52.832;4.758;2023-09-19T07:11:29;23.80;55.30
11491;DHT22;5802;52.832;4.758;2023-09-19T07:13:57;23.80;55.30
11491;DHT22;5802;52.832;4.758;2023-09-19T07:16:23;23.80;55.20
11491;DHT22;5802;52.832;4.758;2023-09-19T07:18:54;23.80;55.30
11491;DHT22;5802;52.832;4.758;2023-09-19T07:21:22;23.80;54.80
11491;DHT22;5802;52.832;4.758;2023-09-19T07:23:48;23.80;55.10
11491;DHT22;5802;52.832;4.758;2023-09-19T07:26:16;23.90;55.20
11491;DHT22;5802;52.832;4.758;2023-09-19T07:28:43;23.90;55.10
11491;DHT22;5802;52.832;4.758;2023-09-19T07:31:10;23.90;54.40
11491;DHT22;5802;52.832;4.758;2023-09-19T07:33:38;23.90;55.10
11491;DHT22;5802;52.832;4.758;2023-09-19T07:36:05;23.90;54.90
11491;DHT22;5802;52.832;4.758;2023-09-19T07:38:36;24.00;55.00
11491;DHT22;5802;52.832;4.758;2023-09-19T07:41:03;23.90;54.70
11491;DHT22;5802;52.832;4.758;2023-09-19T07:43:32;24.00;54.80
11491;DHT22;5802;52.832;4.758;2023-09-19T07:46:03;24.00;54.60
11491;DHT22;5802;52.832;4.758;2023-09-19T07:48:31;24.00;54.60
11491;DHT22;5802;52.832;4.758;2023-09-19T07:51:02;24.00;54.50
11491;DHT22;5802;52.832;4.758;2023-09-19T07:53:29;24.00;54.20
11491;DHT22;5802;52.832;4.758;2023-09-19T07:56:04;24.00;54.30
11491;DHT22;5802;52.832;4.758;2023-09-19T07:58:32;24.00;54.30
11491;DHT22;5802;52.832;4.758;2023-09-19T08:01:04;24.00;54.20
11491;DHT22;5802;52.832;4.758;2023-09-19T08:03:31;24.00;54.10
11491;DHT22;5802;52.832;4.758;2023-09-19T08:05:58;24.00;54.00
11491;DHT22;5802;52.832;4.758;2023-09-19T08:08:25;24.10;54.00
11491;DHT22;5802;52.832;4.758;2023-09-19T08:10:53;24.10;54.10
11491;DHT22;5802;52.832;4.758;2023-09-19T08:13:21;24.10;54.00
11491;DHT22;5802;52.832;4.758;2023-09-19T08:15:50;24.10;53.80
11491;DHT22;5802;52.832;4.758;2023-09-19T08:18:18;24.20;53.70
11491;DHT22;5802;52.832;4.758;2023-09-19T08:20:49;24.20;53.50
11491;DHT22;5802;52.832;4.758;2023-09-19T08:23:16;24.20;53.50
11491;DHT22;5802;52.832;4.758;2023-09-19T08:25:45;24.30;53.60
11491;DHT22;5802;52.832;4.758;2023-09-19T08:28:12;24.30;53.50
11491;DHT22;5802;52.832;4.758;2023-09-19T08:30:43;24.30;53.50
11491;DHT22;5802;52.832;4.758;2023-09-19T08:33:11;24.30;53.00
11491;DHT22;5802;52.832;4.758;2023-09-19T08:35:40;24.30;53.10
11491;DHT22;5802;52.832;4.758;2023-09-19T08:38:08;24.30;53.10
11491;DHT22;5802;52.832;4.758;2023-09-19T08:40:37;24.40;52.90
11491;DHT22;5802;52.832;4.758;2023-09-19T08:43:05;24.40;52.70
11491;DHT22;5802;52.832;4.758;2023-09-19T08:45:32;24.50;52.90
11491;DHT22;5802;52.832;4.758;2023-09-19T08:48:09;24.50;52.60
11491;DHT22;5802;52.832;4.758;2023-09-19T08:50:49;24.50;52.70
11491;DHT22;5802;52.832;4.758;2023-09-19T08:53:21;24.50;52.10
11491;DHT22;5802;52.832;4.758;2023-09-19T08:55:50;24.50;52.10
11491;DHT22;5802;52.832;4.758;2023-09-19T08:58:19;24.50;52.10
11491;DHT22;5802;52.832;4.758;2023-09-19T09:00:48;24.50;51.80
11491;DHT22;5802;52.832;4.758;2023-09-19T09:03:18;24.60;51.60
11491;DHT22;5802;52.832;4.758;2023-09-19T09:05:50;24.50;52.10
11491;DHT22;5802;52.832;4.758;2023-09-19T09:08:18;24.50;51.90
11491;DHT22;5802;52.832;4.758;2023-09-19T09:10:47;24.50;52.00
11491;DHT22;5802;52.832;4.758;2023-09-19T09:13:14;24.50;52.00
11491;DHT22;5802;52.832;4.758;2023-09-19T09:15:41;24.50;51.90
11491;DHT22;5802;52.832;4.758;2023-09-19T09:18:10;24.50;51.80
11491;DHT22;5802;52.832;4.758;2023-09-19T09:20:37;24.50;51.70
11491;DHT22;5802;52.832;4.758;2023-09-19T09:23:05;24.50;51.80
11491;DHT22;5802;52.832;4.758;2023-09-19T09:25:48;24.50;51.60
11491;DHT22;5802;52.832;4.758;2023-09-19T09:28:20;24.50;51.50
11491;DHT22;5802;52.832;4.758;2023-09-19T09:30:47;24.50;51.30
11491;DHT22;5802;52.832;4.758;2023-09-19T09:33:14;24.50;51.80
11491;DHT22;5802;52.832;4.758;2023-09-19T09:35:49;24.50;51.70
11491;DHT22;5802;52.832;4.758;2023-09-19T09:38:19;24.50;51.70
11491;DHT22;5802;52.832;4.758;2023-09-19T09:40:47;24.50;51.70
11491;DHT22;5802;52.832;4.758;2023-09-19T09:43:28;24.50;51.50
11491;DHT22;5802;52.832;4.758;2023-09-19T09:46:11;24.50;51.40
11491;DHT22;5802;52.832;4.758;2023-09-19T09:48:57;24.50;51.20
11491;DHT22;5802;52.832;4.758;2023-09-19T09:51:38;24.60;51.30
11491;DHT22;5802;52.832;4.758;2023-09-19T09:54:13;24.50;51.40
11491;DHT22;5802;52.832;4.758;2023-09-19T09:56:54;24.50;51.50
11491;DHT22;5802;52.832;4.758;2023-09-19T09:59:44;24.50;51.40
11491;DHT22;5802;52.832;4.758;2023-09-19T10:02:12;24.50;51.80
11491;DHT22;5802;52.832;4.758;2023-09-19T10:04:42;24.50;52.00
11491;DHT22;5802;52.832;4.758;2023-09-19T10:07:28;24.50;52.10
11491;DHT22;5802;52.832;4.758;2023-09-19T10:10:00;24.40;52.10
11491;DHT22;5802;52.832;4.758;2023-09-19T10:12:38;24.40;52.20
11491;DHT22;5802;52.832;4.758;2023-09-19T10:15:06;24.50;52.50
11491;DHT22;5802;52.832;4.758;2023-09-19T10:17:36;24.50;52.40
11491;DHT22;5802;52.832;4.758;2023-09-19T10:20:03;24.40;52.50
11491;DHT22;5802;52.832;4.758;2023-09-19T10:22:43;24.40;52.90
11491;DHT22;5802;52.832;4.758;2023-09-19T10:25:12;24.50;53.30
11491;DHT22;5802;52.832;4.758;2023-09-19T10:27:40;24.40;53.80
11491;DHT22;5802;52.832;4.758;2023-09-19T10:30:09;24.50;54.10
11491;DHT22;5802;52.832;4.758;2023-09-19T10:32:40;24.50;54.30
11491;DHT22;5802;52.832;4.758;2023-09-19T10:35:07;24.40;54.40
11491;DHT22;5802;52.832;4.758;2023-09-19T10:37:34;24.40;54.50
11491;DHT22;5802;52.832;4.758;2023-09-19T10:40:04;24.40;54.60
11491;DHT22;5802;52.832;4.758;2023-09-19T10:42:38;24.40;55.00
11491;DHT22;5802;52.832;4.758;2023-09-19T10:45:08;24.40;55.10
11491;DHT22;5802;52.832;4.758;2023-09-19T10:47:38;24.40;55.20
11491;DHT22;5802;52.832;4.758;2023-09-19T10:50:06;24.40;55.30
11491;DHT22;5802;52.832;4.758;2023-09-19T10:52:40;24.40;55.30
11491;DHT22;5802;52.832;4.758;2023-09-19T10:55:08;24.30;55.40
11491;DHT22;5802;52.832;4.758;2023-09-19T10:57:38;24.30;55.60
11491;DHT22;5802;52.832;4.758;2023-09-19T11:00:06;24.30;56.50
11491;DHT22;5802;52.832;4.758;2023-09-19T11:03:16;24.30;56.10
11491;DHT22;5802;52.832;4.758;2023-09-19T11:06:00;24.30;56.10
11491;DHT22;5802;52.832;4.758;2023-09-19T11:08:28;24.30;56.30
11491;DHT22;5802;52.832;4.758;2023-09-19T11:10:55;24.30;56.40
11491;DHT22;5802;52.832;4.758;2023-09-19T11:13:26;24.30;56.60
11491;DHT22;5802;52.832;4.758;2023-09-19T11:16:18;24.30;56.60
11491;DHT22;5802;52.832;4.758;2023-09-19T11:18:53;24.30;56.80
11491;DHT22;5802;52.832;4.758;2023-09-19T11:21:51;24.30;56.90
11491;DHT22;5802;52.832;4.758;2023-09-19T11:24:32;24.30;56.80
11491;DHT22;5802;52.832;4.758;2023-09-19T11:27:14;24.30;56.90
11491;DHT22;5802;52.832;4.758;2023-09-19T11:29:44;24.30;57.00
11491;DHT22;5802;52.832;4.758;2023-09-19T11:32:12;24.40;57.00
11491;DHT22;5802;52.832;4.758;2023-09-19T11:34:45;24.40;56.80
11491;DHT22;5802;52.832;4.758;2023-09-19T11:40:45;24.40;56.70
11491;DHT22;5802;52.832;4.758;2023-09-19T11:43:32;24.40;56.80
11491;DHT22;5802;52.832;4.758;2023-09-19T11:46:09;24.40;56.90
11491;DHT22;5802;52.832;4.758;2023-09-19T11:48:38;24.40;57.00
11491;DHT22;5802;52.832;4.758;2023-09-19T11:51:17;24.40;57.00
11491;DHT22;5802;52.832;4.758;2023-09-19T11:53:52;24.40;57.00
11491;DHT22;5802;52.832;4.758;2023-09-19T11:56:20;24.40;56.90
11491;DHT22;5802;52.832;4.758;2023-09-19T11:58:50;24.40;56.90
11491;DHT22;5802;52.832;4.758;2023-09-19T12:01:24;24.40;57.10
11491;DHT22;5802;52.832;4.758;2023-09-19T12:03:55;24.30;57.20
11491;DHT22;5802;52.832;4.758;2023-09-19T12:06:23;24.30;57.40
11491;DHT22;5802;52.832;4.758;2023-09-19T12:08:51;24.30;57.60
11491;DHT22;5802;52.832;4.758;2023-09-19T12:11:21;24.30;57.80
11491;DHT22;5802;52.832;4.758;2023-09-19T12:13:49;24.30;57.80
11491;DHT22;5802;52.832;4.758;2023-09-19T12:16:17;24.30;57.90
11491;DHT22;5802;52.832;4.758;2023-09-19T12:18:49;24.30;57.90
11491;DHT22;5802;52.832;4.758;2023-09-19T12:21:27;24.40;57.90
11491;DHT22;5802;52.832;4.758;2023-09-19T12:24:13;24.40;57.90
11491;DHT22;5802;52.832;4.758;2023-09-19T12:26:43;24.40;58.00
11491;DHT22;5802;52.832;4.758;2023-09-19T12:29:12;24.40;58.20
11491;DHT22;5802;52.832;4.758;2023-09-19T12:31:51;24.40;58.10
11491;DHT22;5802;52.832;4.758;2023-09-19T12:34:23;24.40;58.20
11491;DHT22;5802;52.832;4.758;2023-09-19T12:37:04;24.40;58.10
11491;DHT22;5802;52.832;4.758;2023-09-19T12:39:31;24.40;57.80
11491;DHT22;5802;52.832;4.758;2023-09-19T12:41:58;24.50;57.80
11491;DHT22;5802;52.832;4.758;2023-09-19T12:44:25;24.40;57.80
11491;DHT22;5802;52.832;4.758;2023-09-19T12:46:52;24.50;58.00
11491;DHT22;5802;52.832;4.758;2023-09-19T12:49:21;24.40;58.00
11491;DHT22;5802;52.832;4.758;2023-09-19T12:51:49;24.40;58.00
11491;DHT22;5802;52.832;4.758;2023-09-19T12:54:16;24.50;58.10
11491;DHT22;5802;52.832;4.758;2023-09-19T12:56:43;24.50;58.00
11491;DHT22;5802;52.832;4.758;2023-09-19T12:59:12;24.40;57.90
11491;DHT22;5802;52.832;4.758;2023-09-19T13:01:40;24.40;57.90
11491;DHT22;5802;52.832;4.758;2023-09-19T13:04:11;24.40;57.80
11491;DHT22;5802;52.832;4.758;2023-09-19T13:06:42;24.40;57.70
11491;DHT22;5802;52.832;4.758;2023-09-19T13:09:10;24.40;57.70
11491;DHT22;5802;52.832;4.758;2023-09-19T13:11:37;24.40;57.70
11491;DHT22;5802;52.832;4.758;2023-09-19T13:14:20;24.40;57.70
11491;DHT22;5802;52.832;4.758;2023-09-19T13:16:54;24.40;57.70
11491;DHT22;5802;52.832;4.758;2023-09-19T13:19:38;24.40;57.70
11491;DHT22;5802;52.832;4.758;2023-09-19T13:22:36;24.40;57.70
11491;DHT22;5802;52.832;4.758;2023-09-19T13:25:05;24.40;57.60
11491;DHT22;5802;52.832;4.758;2023-09-19T13:27:33;24.40;57.60
11491;DHT22;5802;52.832;4.758;2023-09-19T13:30:00;24.40;57.50
11491;DHT22;5802;52.832;4.758;2023-09-19T13:32:26;24.40;57.40
11491;DHT22;5802;52.832;4.758;2023-09-19T13:34:53;24.40;57.30
11491;DHT22;5802;52.832;4.758;2023-09-19T13:37:22;24.40;57.20
11491;DHT22;5802;52.832;4.758;2023-09-19T13:39:48;24.40;57.20
11491;DHT22;5802;52.832;4.758;2023-09-19T13:42:15;24.40;57.10
11491;DHT22;5802;52.832;4.758;2023-09-19T13:44:43;24.40;57.00
11491;DHT22;5802;52.832;4.758;2023-09-19T13:47:13;24.40;56.90
11491;DHT22;5802;52.832;4.758;2023-09-19T13:49:40;24.40;56.80
11491;DHT22;5802;52.832;4.758;2023-09-19T13:52:08;24.40;56.90
11491;DHT22;5802;52.832;4.758;2023-09-19T13:54:36;24.40;56.80
11491;DHT22;5802;52.832;4.758;2023-09-19T13:57:04;24.40;56.70
11491;DHT22;5802;52.832;4.758;2023-09-19T13:59:30;24.40;56.80
11491;DHT22;5802;52.832;4.758;2023-09-19T14:01:57;24.50;57.50
11491;DHT22;5802;52.832;4.758;2023-09-19T14:04:24;24.40;56.80
11491;DHT22;5802;52.832;4.758;2023-09-19T14:06:50;24.40;56.70
11491;DHT22;5802;52.832;4.758;2023-09-19T14:09:17;24.40;56.60
11491;DHT22;5802;52.832;4.758;2023-09-19T14:11:46;24.40;56.70
11491;DHT22;5802;52.832;4.758;2023-09-19T14:14:13;24.40;56.70
11491;DHT22;5802;52.832;4.758;2023-09-19T14:16:40;24.40;56.70
11491;DHT22;5802;52.832;4.758;2023-09-19T14:19:07;24.40;56.60
11491;DHT22;5802;52.832;4.758;2023-09-19T14:21:34;24.40;56.70
11491;DHT22;5802;52.832;4.758;2023-09-19T14:24:02;24.40;56.80
11491;DHT22;5802;52.832;4.758;2023-09-19T14:26:28;24.30;56.70
11491;DHT22;5802;52.832;4.758;2023-09-19T14:28:57;24.30;56.80
11491;DHT22;5802;52.832;4.758;2023-09-19T14:31:23;24.30;56.90
11491;DHT22;5802;52.832;4.758;2023-09-19T14:33:53;24.30;56.90
11491;DHT22;5802;52.832;4.758;2023-09-19T14:36:21;24.30;57.00
11491;DHT22;5802;52.832;4.758;2023-09-19T14:38:48;24.30;57.10
11491;DHT22;5802;52.832;4.758;2023-09-19T14:41:19;24.20;57.20
11491;DHT22;5802;52.832;4.758;2023-09-19T14:43:46;24.20;57.20
11491;DHT22;5802;52.832;4.758;2023-09-19T14:46:14;24.20;57.20
11491;DHT22;5802;52.832;4.758;2023-09-19T14:48:41;24.20;57.30
11491;DHT22;5802;52.832;4.758;2023-09-19T14:51:09;24.20;57.20
11491;DHT22;5802;52.832;4.758;2023-09-19T14:53:37;24.20;57.20
11491;DHT22;5802;52.832;4.758;2023-09-19T14:56:05;24.20;57.20
11491;DHT22;5802;52.832;4.758;2023-09-19T14:58:33;24.20;57.20
11491;DHT22;5802;52.832;4.758;2023-09-19T15:01:03;24.20;57.30
11491;DHT22;5802;52.832;4.758;2023-09-19T15:03:32;24.20;57.30
11491;DHT22;5802;52.832;4.758;2023-09-19T15:05:59;24.20;57.30
11491;DHT22;5802;52.832;4.758;2023-09-19T15:08:27;24.20;57.30
11491;DHT22;5802;52.832;4.758;2023-09-19T15:10:54;24.20;57.40
11491;DHT22;5802;52.832;4.758;2023-09-19T15:13:21;24.10;57.30
11491;DHT22;5802;52.832;4.758;2023-09-19T15:15:48;24.20;57.50
11491;DHT22;5802;52.832;4.758;2023-09-19T15:18:15;24.20;57.50
11491;DHT22;5802;52.832;4.758;2023-09-19T15:20:44;24.10;57.40
11491;DHT22;5802;52.832;4.758;2023-09-19T15:23:11;24.10;57.40
11491;DHT22;5802;52.832;4.758;2023-09-19T15:25:38;24.20;57.50
11491;DHT22;5802;52.832;4.758;2023-09-19T15:28:06;24.20;57.50
11491;DHT22;5802;52.832;4.758;2023-09-19T15:30:37;24.10;57.40
11491;DHT22;5802;52.832;4.758;2023-09-19T15:33:03;24.20;57.50
11491;DHT22;5802;52.832;4.758;2023-09-19T15:35:30;24.20;57.50
11491;DHT22;5802;52.832;4.758;2023-09-19T15:37:58;24.10;57.50
11491;DHT22;5802;52.832;4.758;2023-09-19T15:40:26;24.10;57.50
11491;DHT22;5802;52.832;4.758;2023-09-19T15:42:54;24.10;57.50
11491;DHT22;5802;52.832;4.758;2023-09-19T15:45:21;24.10;57.60
11491;DHT22;5802;52.832;4.758;2023-09-19T15:47:48;24.10;57.60
11491;DHT22;5802;52.832;4.758;2023-09-19T15:50:15;24.10;57.60
11491;DHT22;5802;52.832;4.758;2023-09-19T15:52:42;24.10;57.70
11491;DHT22;5802;52.832;4.758;2023-09-19T15:55:11;24.00;57.60
11491;DHT22;5802;52.832;4.758;2023-09-19T15:57:38;24.10;57.80
11491;DHT22;5802;52.832;4.758;2023-09-19T16:00:06;24.10;57.80
11491;DHT22;5802;52.832;4.758;2023-09-19T16:02:38;24.10;57.90
11491;DHT22;5802;52.832;4.758;2023-09-19T16:05:05;24.00;57.90